EZY533 EGGP-EGAC
Flight info
| Callsign | EZY533 |
|---|---|
| Flight time | 0h 34m |
| Altitude | 22000 |
| Route | WAL M146 ERDUV Z198 MASOP M148 MAGEE |
| Aircraft | A320/M-SDE2E3FGHIJ1RWXYZ/LB1 |
Departure
| Time | 2026-04-26 17:03 |
|---|---|
| Airport | Liverpool John Lennon Airport (EGGP) |
Arrival
| Time | 2026-04-26 17:38 |
|---|---|
| Airport | George Best Belfast City Airport (EGAC) |
| Time | Latitude | Longitude | Altitude | Speed | Heading |
|---|---|---|---|---|---|
| 2026-04-26 16:37 | 53.33587 | -2.85184 | 88 ft | 0 kts | 265° |
| 2026-04-26 16:56 | 53.33588 | -2.85182 | 85 ft | 2 kts | 265° |
| 2026-04-26 16:57 | 53.33589 | -2.85140 | 87 ft | 4 kts | 265° |
| 2026-04-26 16:57 | 53.33591 | -2.85104 | 88 ft | 4 kts | 260° |
| 2026-04-26 16:57 | 53.33624 | -2.85070 | 87 ft | 4 kts | 175° |
| 2026-04-26 16:58 | 53.33633 | -2.85071 | 87 ft | 0 kts | 175° |
| 2026-04-26 17:00 | 53.33625 | -2.85070 | 89 ft | 6 kts | 175° |
| 2026-04-26 17:00 | 53.33539 | -2.85054 | 85 ft | 18 kts | 158° |
| 2026-04-26 17:01 | 53.33532 | -2.84912 | 85 ft | 15 kts | 85° |
| 2026-04-26 17:01 | 53.33542 | -2.84683 | 80 ft | 24 kts | 86° |
| 2026-04-26 17:01 | 53.33558 | -2.84390 | 74 ft | 27 kts | 84° |
| 2026-04-26 17:01 | 53.33575 | -2.84076 | 72 ft | 28 kts | 85° |
| 2026-04-26 17:02 | 53.33587 | -2.83747 | 82 ft | 28 kts | 86° |
| 2026-04-26 17:02 | 53.33598 | -2.83436 | 90 ft | 22 kts | 86° |
| 2026-04-26 17:02 | 53.33512 | -2.83302 | 86 ft | 20 kts | 169° |
| 2026-04-26 17:02 | 53.33433 | -2.83333 | 85 ft | 7 kts | 275° |
| 2026-04-26 17:03 | 53.33431 | -2.83474 | 80 ft | 26 kts | 265° |
| 2026-04-26 17:03 | 53.33397 | -2.84235 | 77 ft | 102 kts | 265° |
| 2026-04-26 17:03 | 53.33324 | -2.85756 | 88 ft | 158 kts | 264° |
| 2026-04-26 17:03 | 53.33221 | -2.87641 | 694 ft | 161 kts | 264° |
| 2026-04-26 17:04 | 53.33121 | -2.89527 | 1490 ft | 161 kts | 264° |
| 2026-04-26 17:04 | 53.33036 | -2.91463 | 1918 ft | 180 kts | 271° |
| 2026-04-26 17:04 | 53.33347 | -2.93628 | 2248 ft | 205 kts | 294° |
| 2026-04-26 17:04 | 53.34020 | -2.95908 | 2627 ft | 231 kts | 295° |
| 2026-04-26 17:05 | 53.34782 | -2.98472 | 3145 ft | 254 kts | 294° |
| 2026-04-26 17:05 | 53.35584 | -3.01180 | 3789 ft | 263 kts | 294° |
| 2026-04-26 17:05 | 53.36397 | -3.03929 | 4229 ft | 264 kts | 294° |
| 2026-04-26 17:05 | 53.37211 | -3.06688 | 5272 ft | 265 kts | 294° |
| 2026-04-26 17:06 | 53.38029 | -3.09470 | 6238 ft | 268 kts | 294° |
| 2026-04-26 17:06 | 53.38861 | -3.12290 | 7149 ft | 272 kts | 296° |
| 2026-04-26 17:06 | 53.39994 | -3.14843 | 8006 ft | 278 kts | 312° |
| 2026-04-26 17:06 | 53.41364 | -3.17171 | 8913 ft | 281 kts | 313° |
| 2026-04-26 17:07 | 53.42749 | -3.19513 | 9797 ft | 285 kts | 313° |
| 2026-04-26 17:07 | 53.44159 | -3.21898 | 10516 ft | 295 kts | 313° |
| 2026-04-26 17:07 | 53.45655 | -3.24440 | 10814 ft | 318 kts | 313° |
| 2026-04-26 17:07 | 53.47232 | -3.27129 | 11423 ft | 327 kts | 313° |
| 2026-04-26 17:08 | 53.48843 | -3.29875 | 12191 ft | 332 kts | 313° |
| 2026-04-26 17:08 | 53.50471 | -3.32655 | 12986 ft | 335 kts | 313° |
| 2026-04-26 17:08 | 53.52115 | -3.35472 | 13773 ft | 339 kts | 313° |
| 2026-04-26 17:08 | 53.53772 | -3.38317 | 14488 ft | 342 kts | 313° |
| 2026-04-26 17:09 | 53.55440 | -3.41189 | 15148 ft | 346 kts | 313° |
| 2026-04-26 17:09 | 53.56561 | -3.43118 | 15576 ft | 348 kts | 313° |
| 2026-04-26 17:09 | 53.58674 | -3.47278 | 16437 ft | 352 kts | 304° |
| 2026-04-26 17:09 | 53.60099 | -3.50664 | 17091 ft | 356 kts | 304° |
| 2026-04-26 17:10 | 53.61535 | -3.54080 | 17754 ft | 359 kts | 304° |
| 2026-04-26 17:10 | 53.62988 | -3.57534 | 18409 ft | 363 kts | 304° |
| 2026-04-26 17:10 | 53.64446 | -3.61006 | 18974 ft | 366 kts | 303° |
| 2026-04-26 17:10 | 53.65930 | -3.64541 | 19538 ft | 369 kts | 304° |
| 2026-04-26 17:11 | 53.67409 | -3.68069 | 20174 ft | 370 kts | 304° |
| 2026-04-26 17:11 | 53.68897 | -3.71622 | 20767 ft | 372 kts | 304° |
| 2026-04-26 17:11 | 53.70386 | -3.75189 | 21321 ft | 374 kts | 303° |
| 2026-04-26 17:11 | 53.71896 | -3.78811 | 21864 ft | 377 kts | 303° |
| 2026-04-26 17:12 | 53.74916 | -3.86071 | 22270 ft | 370 kts | 303° |
| 2026-04-26 17:12 | 53.76367 | -3.89557 | 22268 ft | 359 kts | 303° |
| 2026-04-26 17:13 | 53.79215 | -3.96436 | 22273 ft | 356 kts | 303° |
| 2026-04-26 17:13 | 53.80631 | -3.99866 | 22270 ft | 355 kts | 303° |
| 2026-04-26 17:13 | 53.83457 | -4.06725 | 22272 ft | 355 kts | 303° |
| 2026-04-26 17:14 | 53.84865 | -4.10153 | 22271 ft | 355 kts | 303° |
| 2026-04-26 17:14 | 53.88147 | -4.16404 | 22268 ft | 359 kts | 321° |
| 2026-04-26 17:14 | 53.90284 | -4.18592 | 22268 ft | 362 kts | 333° |
| 2026-04-26 17:15 | 53.94986 | -4.21730 | 22282 ft | 362 kts | 337° |
| 2026-04-26 17:15 | 53.97324 | -4.23270 | 22288 ft | 361 kts | 336° |
| 2026-04-26 17:15 | 53.99661 | -4.24818 | 22291 ft | 360 kts | 336° |
| 2026-04-26 17:16 | 54.02001 | -4.26373 | 22292 ft | 359 kts | 336° |
| 2026-04-26 17:16 | 54.04318 | -4.27914 | 22292 ft | 359 kts | 336° |
| 2026-04-26 17:16 | 54.06646 | -4.29461 | 22293 ft | 359 kts | 336° |
| 2026-04-26 17:16 | 54.08972 | -4.31008 | 22288 ft | 358 kts | 336° |
| 2026-04-26 17:17 | 54.11294 | -4.32552 | 22294 ft | 358 kts | 336° |
| 2026-04-26 17:17 | 54.13570 | -4.34241 | 22284 ft | 356 kts | 329° |
| 2026-04-26 17:17 | 54.15600 | -4.36615 | 22283 ft | 353 kts | 317° |
| 2026-04-26 17:17 | 54.17300 | -4.39631 | 22281 ft | 351 kts | 306° |
| 2026-04-26 17:18 | 54.18692 | -4.42981 | 22291 ft | 350 kts | 304° |
| 2026-04-26 17:18 | 54.20105 | -4.46427 | 22281 ft | 350 kts | 304° |
| 2026-04-26 17:18 | 54.21502 | -4.49820 | 22279 ft | 349 kts | 304° |
| 2026-04-26 17:18 | 54.22902 | -4.53216 | 22279 ft | 349 kts | 304° |
| 2026-04-26 17:19 | 54.25687 | -4.59997 | 22279 ft | 348 kts | 304° |
| 2026-04-26 17:19 | 54.27070 | -4.63391 | 22279 ft | 348 kts | 304° |
| 2026-04-26 17:19 | 54.28453 | -4.66797 | 22267 ft | 348 kts | 303° |
| 2026-04-26 17:20 | 54.29833 | -4.70197 | 22282 ft | 348 kts | 304° |
| 2026-04-26 17:20 | 54.30282 | -4.71301 | 22275 ft | 348 kts | 304° |
| 2026-04-26 17:20 | 54.32591 | -4.76988 | 22279 ft | 348 kts | 304° |
| 2026-04-26 17:20 | 54.33971 | -4.80398 | 22276 ft | 348 kts | 303° |
| 2026-04-26 17:21 | 54.35348 | -4.83811 | 22209 ft | 346 kts | 303° |
| 2026-04-26 17:21 | 54.36698 | -4.87156 | 21940 ft | 338 kts | 303° |
| 2026-04-26 17:21 | 54.38006 | -4.90398 | 21676 ft | 332 kts | 303° |
| 2026-04-26 17:21 | 54.39323 | -4.93667 | 21377 ft | 326 kts | 303° |
| 2026-04-26 17:22 | 54.40589 | -4.96821 | 20906 ft | 326 kts | 303° |
| 2026-04-26 17:22 | 54.41883 | -5.00053 | 20576 ft | 322 kts | 303° |
| 2026-04-26 17:22 | 54.43148 | -5.03207 | 20170 ft | 320 kts | 303° |
| 2026-04-26 17:22 | 54.44412 | -5.06347 | 19756 ft | 319 kts | 303° |
| 2026-04-26 17:23 | 54.45678 | -5.09469 | 19338 ft | 318 kts | 303° |
| 2026-04-26 17:23 | 54.46940 | -5.12581 | 18930 ft | 318 kts | 303° |
| 2026-04-26 17:23 | 54.48204 | -5.15704 | 18510 ft | 318 kts | 303° |
| 2026-04-26 17:23 | 54.49462 | -5.18815 | 18071 ft | 317 kts | 303° |
| 2026-04-26 17:24 | 54.50775 | -5.21782 | 17663 ft | 316 kts | 311° |
| 2026-04-26 17:24 | 54.52426 | -5.24271 | 17263 ft | 316 kts | 320° |
| 2026-04-26 17:24 | 54.54174 | -5.26624 | 16859 ft | 314 kts | 320° |
| 2026-04-26 17:24 | 54.55893 | -5.28949 | 16455 ft | 313 kts | 320° |
| 2026-04-26 17:25 | 54.57530 | -5.31331 | 16084 ft | 311 kts | 310° |
| 2026-04-26 17:25 | 54.58625 | -5.34518 | 15746 ft | 304 kts | 285° |
| 2026-04-26 17:25 | 54.58812 | -5.38026 | 15506 ft | 298 kts | 262° |
| 2026-04-26 17:25 | 54.58234 | -5.41437 | 15162 ft | 297 kts | 250° |
| 2026-04-26 17:26 | 54.57477 | -5.44738 | 14815 ft | 296 kts | 249° |
| 2026-04-26 17:26 | 54.56702 | -5.48030 | 14484 ft | 295 kts | 249° |
| 2026-04-26 17:26 | 54.55929 | -5.51303 | 14164 ft | 294 kts | 249° |
| 2026-04-26 17:26 | 54.55161 | -5.54557 | 13816 ft | 293 kts | 249° |
| 2026-04-26 17:27 | 54.54393 | -5.57800 | 13472 ft | 292 kts | 249° |
| 2026-04-26 17:27 | 54.53626 | -5.61029 | 13126 ft | 290 kts | 249° |
| 2026-04-26 17:27 | 54.52862 | -5.64235 | 12779 ft | 289 kts | 249° |
| 2026-04-26 17:27 | 54.52100 | -5.67423 | 12428 ft | 287 kts | 249° |
| 2026-04-26 17:28 | 54.51596 | -5.69525 | 12200 ft | 286 kts | 249° |
| 2026-04-26 17:28 | 54.50838 | -5.72678 | 11861 ft | 285 kts | 249° |
| 2026-04-26 17:28 | 54.50081 | -5.75813 | 11514 ft | 283 kts | 249° |
| 2026-04-26 17:28 | 54.49314 | -5.78980 | 11170 ft | 282 kts | 249° |
| 2026-04-26 17:29 | 54.48561 | -5.82078 | 10832 ft | 281 kts | 249° |
| 2026-04-26 17:29 | 54.48061 | -5.84130 | 10611 ft | 279 kts | 249° |
| 2026-04-26 17:29 | 54.47061 | -5.88228 | 10161 ft | 277 kts | 249° |
| 2026-04-26 17:29 | 54.46314 | -5.91274 | 9785 ft | 275 kts | 249° |
| 2026-04-26 17:30 | 54.45573 | -5.94302 | 9412 ft | 274 kts | 249° |
| 2026-04-26 17:30 | 54.44843 | -5.97290 | 8893 ft | 269 kts | 249° |
| 2026-04-26 17:30 | 54.44124 | -6.00249 | 8232 ft | 267 kts | 249° |
| 2026-04-26 17:30 | 54.43416 | -6.03183 | 7594 ft | 264 kts | 249° |
| 2026-04-26 17:31 | 54.42722 | -6.06082 | 7007 ft | 260 kts | 248° |
| 2026-04-26 17:31 | 54.42048 | -6.08906 | 6404 ft | 256 kts | 249° |
| 2026-04-26 17:31 | 54.41645 | -6.11849 | 5691 ft | 254 kts | 272° |
| 2026-04-26 17:31 | 54.42114 | -6.14719 | 5041 ft | 253 kts | 302° |
| 2026-04-26 17:32 | 54.43359 | -6.16762 | 4479 ft | 249 kts | 332° |
| 2026-04-26 17:32 | 54.45016 | -6.17398 | 4033 ft | 243 kts | 4° |
| 2026-04-26 17:32 | 54.46551 | -6.16458 | 3793 ft | 232 kts | 36° |
| 2026-04-26 17:32 | 54.47503 | -6.14312 | 3598 ft | 227 kts | 68° |
| 2026-04-26 17:33 | 54.48027 | -6.11754 | 3477 ft | 227 kts | 69° |
| 2026-04-26 17:33 | 54.48563 | -6.09226 | 3347 ft | 222 kts | 69° |
| 2026-04-26 17:33 | 54.49086 | -6.06775 | 3218 ft | 215 kts | 69° |
| 2026-04-26 17:34 | 54.50104 | -6.02080 | 2910 ft | 206 kts | 62° |
| 2026-04-26 17:34 | 54.50982 | -6.00171 | 2559 ft | 203 kts | 37° |
| 2026-04-26 17:34 | 54.52122 | -5.98794 | 2246 ft | 196 kts | 33° |
| 2026-04-26 17:34 | 54.53231 | -5.97480 | 1978 ft | 186 kts | 33° |
| 2026-04-26 17:35 | 54.54273 | -5.96242 | 1727 ft | 177 kts | 33° |
| 2026-04-26 17:35 | 54.55244 | -5.95086 | 1511 ft | 160 kts | 34° |
| 2026-04-26 17:35 | 54.56124 | -5.94039 | 1298 ft | 148 kts | 34° |
| 2026-04-26 17:35 | 54.56949 | -5.93057 | 1090 ft | 142 kts | 35° |
| 2026-04-26 17:36 | 54.57747 | -5.92105 | 901 ft | 137 kts | 35° |
| 2026-04-26 17:36 | 54.58518 | -5.91185 | 704 ft | 133 kts | 35° |
| 2026-04-26 17:36 | 54.59272 | -5.90282 | 541 ft | 131 kts | 36° |
| 2026-04-26 17:36 | 54.60019 | -5.89389 | 353 ft | 130 kts | 35° |
| 2026-04-26 17:37 | 54.60756 | -5.88511 | 178 ft | 128 kts | 35° |
| 2026-04-26 17:37 | 54.61484 | -5.87637 | 23 ft | 122 kts | 36° |
| 2026-04-26 17:37 | 54.62021 | -5.86997 | 16 ft | 53 kts | 34° |
| 2026-04-26 17:38 | 54.62446 | -5.86548 | 21 ft | 15 kts | 5° |
| 2026-04-26 17:38 | 54.62459 | -5.86436 | 20 ft | 14 kts | 155° |
| 2026-04-26 17:38 | 54.62406 | -5.86520 | 25 ft | 10 kts | 244° |
| 2026-04-26 17:38 | 54.62350 | -5.86610 | 21 ft | 16 kts | 211° |
| 2026-04-26 17:39 | 54.62229 | -5.86749 | 21 ft | 23 kts | 214° |
| 2026-04-26 17:39 | 54.62089 | -5.86918 | 17 ft | 26 kts | 216° |
| 2026-04-26 17:39 | 54.61938 | -5.87098 | 17 ft | 27 kts | 213° |
| 2026-04-26 17:39 | 54.61828 | -5.87168 | 19 ft | 13 kts | 137° |
| 2026-04-26 17:40 | 54.61784 | -5.87050 | 20 ft | 10 kts | 123° |
| 2026-04-26 17:40 | 54.61743 | -5.86990 | 21 ft | 14 kts | 168° |
| 2026-04-26 17:40 | 54.61632 | -5.87079 | 21 ft | 6 kts | 162° |
| 2026-04-26 17:40 | 54.61599 | -5.87055 | 21 ft | 3 kts | 161° |
| 2026-04-26 17:41 | 54.61583 | -5.87046 | 21 ft | 0 kts | 161° |
| 2026-04-26 17:41 | 54.61581 | -5.87044 | 21 ft | 0 kts | 161° |